createdAt,value
2023-02-22T00:01:08.231Z,7.97
2023-02-22T00:03:36.193Z,8.38
2023-02-22T00:06:06.291Z,8.77
2023-02-22T00:08:37.394Z,8.75
2023-02-22T00:11:09.035Z,8.66
2023-02-22T00:13:38.528Z,8.48
2023-02-22T00:16:07.142Z,8.86
2023-02-22T00:18:35.305Z,8.95
2023-02-22T00:21:10.579Z,8.83
2023-02-22T00:23:46.501Z,8.83
2023-02-22T00:26:21.072Z,9.02
2023-02-22T00:28:53.667Z,9.01
2023-02-22T00:31:22.215Z,9.00
2023-02-22T00:33:50.178Z,8.84
2023-02-22T00:36:17.990Z,8.72
2023-02-22T00:38:45.875Z,8.94
2023-02-22T00:41:13.797Z,9.09
2023-02-22T00:43:41.684Z,8.81
2023-02-22T00:46:09.542Z,9.01
2023-02-22T00:48:37.528Z,9.12
2023-02-22T00:51:05.875Z,9.21
2023-02-22T00:53:33.984Z,9.13
2023-02-22T00:56:01.839Z,8.91
2023-02-22T00:58:29.678Z,8.54
2023-02-22T01:00:57.583Z,8.96
2023-02-22T01:03:25.492Z,9.04
2023-02-22T01:05:53.319Z,9.06
2023-02-22T01:08:21.163Z,9.05
2023-02-22T01:10:52.510Z,9.00
2023-02-22T01:13:20.412Z,8.74
2023-02-22T01:15:48.238Z,7.69
2023-02-22T01:18:17.254Z,7.32
2023-02-22T01:20:47.940Z,7.57
2023-02-22T01:23:17.248Z,8.15
2023-02-22T01:25:45.212Z,8.34
2023-02-22T01:28:13.783Z,8.54
2023-02-22T01:30:41.733Z,8.47
2023-02-22T01:33:10.398Z,8.06
2023-02-22T01:35:42.983Z,7.82
2023-02-22T01:38:10.973Z,8.01
2023-02-22T01:40:43.665Z,8.31
2023-02-22T01:43:24.092Z,8.42
2023-02-22T01:46:20.873Z,8.52
2023-02-22T01:49:10.259Z,8.65
2023-02-22T01:51:46.234Z,8.70
2023-02-22T01:54:31.172Z,8.56
2023-02-22T01:57:20.361Z,8.09
2023-02-22T01:59:57.058Z,7.20
2023-02-22T02:02:26.512Z,6.93
2023-02-22T02:04:56.675Z,7.17
2023-02-22T02:07:25.377Z,7.20
2023-02-22T02:10:04.479Z,7.31
2023-02-22T02:12:36.151Z,7.34
2023-02-22T02:15:25.230Z,7.15
2023-02-22T02:17:57.108Z,7.17
2023-02-22T02:20:46.905Z,7.40
2023-02-22T02:24:20.006Z,8.01
2023-02-22T02:27:41.048Z,8.01
2023-02-22T02:31:02.400Z,7.71
2023-02-22T02:33:39.763Z,8.01
2023-02-22T02:36:44.492Z,8.23
2023-02-22T02:39:50.242Z,7.85
2023-02-22T02:42:26.189Z,7.51
2023-02-22T02:45:19.042Z,7.17
2023-02-22T02:47:58.643Z,7.03
2023-02-22T02:50:38.992Z,7.40
2023-02-22T02:53:09.990Z,7.55
2023-02-22T02:55:38.407Z,7.39
2023-02-22T02:58:08.665Z,7.13
2023-02-22T03:00:41.088Z,6.98
2023-02-22T03:03:37.376Z,7.24
2023-02-22T03:06:13.812Z,7.40
2023-02-22T03:09:35.026Z,7.62
2023-02-22T03:12:45.705Z,7.46
2023-02-22T03:15:44.847Z,7.19
2023-02-22T03:18:32.188Z,7.60
2023-02-22T03:21:23.554Z,7.35
2023-02-22T03:24:14.661Z,7.20
2023-02-22T03:27:03.905Z,7.04
2023-02-22T03:29:35.473Z,7.04
2023-02-22T03:32:16.440Z,6.78
2023-02-22T03:35:08.719Z,6.71
2023-02-22T03:37:46.611Z,6.76
2023-02-22T03:40:29.773Z,6.82
2023-02-22T03:43:43.005Z,6.55
2023-02-22T03:46:13.051Z,6.67
2023-02-22T03:49:14.264Z,7.08
2023-02-22T03:51:42.561Z,7.53
2023-02-22T03:54:16.218Z,7.69
2023-02-22T03:57:00.595Z,7.35
2023-02-22T03:59:29.346Z,6.86
2023-02-22T04:01:58.088Z,6.74
2023-02-22T04:04:26.823Z,7.26
2023-02-22T04:06:54.740Z,7.37
2023-02-22T04:09:22.615Z,6.88
2023-02-22T04:11:50.673Z,6.55
2023-02-22T04:14:18.497Z,6.63
2023-02-22T04:16:46.609Z,7.14
2023-02-22T04:19:14.652Z,7.15
2023-02-22T04:21:45.276Z,6.90
2023-02-22T04:24:13.990Z,6.73
2023-02-22T04:26:41.946Z,6.91
2023-02-22T04:29:10.244Z,6.89
2023-02-22T04:31:38.649Z,6.67
2023-02-22T04:34:06.523Z,6.43
2023-02-22T04:36:34.399Z,6.72
2023-02-22T04:39:02.575Z,7.11
2023-02-22T04:41:31.470Z,7.12
2023-02-22T04:43:59.396Z,7.14
2023-02-22T04:46:27.352Z,7.26
2023-02-22T04:48:55.293Z,6.93
2023-02-22T04:51:23.875Z,6.51
2023-02-22T04:53:52.013Z,7.22
2023-02-22T04:56:20.587Z,7.44
2023-02-22T04:58:48.650Z,7.26
2023-02-22T05:01:17.473Z,6.64
2023-02-22T05:03:45.581Z,6.84
2023-02-22T05:06:13.570Z,6.25
2023-02-22T05:08:42.982Z,6.54
2023-02-22T05:11:10.924Z,7.00
2023-02-22T05:13:38.780Z,6.91
2023-02-22T05:16:07.084Z,6.73
2023-02-22T05:18:35.064Z,6.62
2023-02-22T05:21:02.980Z,6.52
2023-02-22T05:23:30.916Z,6.45
2023-02-22T05:25:59.343Z,6.19
2023-02-22T05:28:27.867Z,5.92
2023-02-22T05:30:55.775Z,6.08
2023-02-22T05:33:23.847Z,6.45
2023-02-22T05:35:55.983Z,6.82
2023-02-22T05:38:23.929Z,7.00
2023-02-22T05:40:51.959Z,6.82
2023-02-22T05:43:20.160Z,7.09
2023-02-22T05:45:48.283Z,6.42
2023-02-22T05:48:16.182Z,5.83
2023-02-22T05:50:46.529Z,6.12
2023-02-22T05:53:14.429Z,5.95
2023-02-22T05:55:44.024Z,6.10
2023-02-22T05:58:13.053Z,6.41
2023-02-22T06:00:40.970Z,6.92
2023-02-22T06:03:10.791Z,7.25
2023-02-22T06:05:40.001Z,7.39
2023-02-22T06:08:08.824Z,7.23
2023-02-22T06:10:36.846Z,6.91
2023-02-22T06:13:05.965Z,7.00
2023-02-22T06:15:33.830Z,6.86
2023-02-22T06:18:02.586Z,6.41
2023-02-22T06:20:31.343Z,6.40
2023-02-22T06:22:59.516Z,6.42
2023-02-22T06:25:34.203Z,6.53
2023-02-22T06:28:02.717Z,6.74
2023-02-22T06:30:31.452Z,6.94
2023-02-22T06:33:00.269Z,7.10
2023-02-22T06:35:28.370Z,6.61
2023-02-22T06:37:56.264Z,6.74
2023-02-22T06:40:29.487Z,6.98
2023-02-22T06:42:59.939Z,6.97
2023-02-22T06:45:29.402Z,7.41
2023-02-22T06:47:57.564Z,7.33
2023-02-22T06:50:30.461Z,7.12
2023-02-22T06:52:58.971Z,6.89
2023-02-22T06:55:33.496Z,6.91
2023-02-22T06:58:04.825Z,7.10
2023-02-22T07:00:34.064Z,7.40
2023-02-22T07:03:04.069Z,7.41
2023-02-22T07:05:32.061Z,7.18
2023-02-22T07:08:08.052Z,7.07
2023-02-22T07:10:39.663Z,7.14
2023-02-22T07:13:09.280Z,7.55
2023-02-22T07:15:37.274Z,7.60
2023-02-22T07:18:05.650Z,7.09
2023-02-22T07:20:34.194Z,7.07
2023-02-22T07:23:02.986Z,6.99
2023-02-22T07:25:31.185Z,7.29
2023-02-22T07:27:59.606Z,7.24
2023-02-22T07:30:32.261Z,7.16
2023-02-22T07:33:10.148Z,7.61
2023-02-22T07:35:48.364Z,7.36
2023-02-22T07:38:20.363Z,7.72
2023-02-22T07:40:48.269Z,7.61
2023-02-22T07:43:31.072Z,8.10
2023-02-22T07:46:02.882Z,8.06
2023-02-22T07:48:32.503Z,7.73
2023-02-22T07:51:00.468Z,7.55
2023-02-22T07:53:33.486Z,7.83
2023-02-22T07:56:05.615Z,8.10
2023-02-22T07:58:33.642Z,7.83
2023-02-22T08:01:02.174Z,7.73
2023-02-22T08:03:36.596Z,7.88
2023-02-22T08:06:08.040Z,7.67
2023-02-22T08:08:36.013Z,7.63
2023-02-22T08:11:04.272Z,7.69
2023-02-22T08:13:32.816Z,8.16
2023-02-22T08:16:00.834Z,8.13
2023-02-22T08:18:28.865Z,7.57
2023-02-22T08:20:56.895Z,7.50
2023-02-22T08:23:27.012Z,7.67
2023-02-22T08:25:55.884Z,7.59
2023-02-22T08:28:25.414Z,7.71
2023-02-22T08:30:54.005Z,7.46
2023-02-22T08:33:22.664Z,7.46
2023-02-22T08:35:51.724Z,7.94
2023-02-22T08:38:31.281Z,8.09
2023-02-22T08:40:59.298Z,7.96
2023-02-22T08:43:28.502Z,8.08
2023-02-22T08:45:57.765Z,8.83
2023-02-22T08:48:26.331Z,8.54
2023-02-22T08:50:54.932Z,9.13
2023-02-22T08:53:22.965Z,8.96
2023-02-22T08:55:50.966Z,8.65
2023-02-22T08:58:18.851Z,9.19
2023-02-22T09:00:47.281Z,9.33
2023-02-22T09:03:15.787Z,9.73
2023-02-22T09:05:45.083Z,9.37
2023-02-22T09:08:13.619Z,9.46
2023-02-22T09:10:41.717Z,9.51
2023-02-22T09:13:10.023Z,9.89
2023-02-22T09:15:39.836Z,9.88
2023-02-22T09:18:12.365Z,9.80
2023-02-22T09:20:43.414Z,10.02
2023-02-22T09:23:11.547Z,10.13
2023-02-22T09:25:40.795Z,10.03
2023-02-22T09:28:10.103Z,10.35
2023-02-22T09:30:38.877Z,10.72
2023-02-22T09:33:16.253Z,10.83
2023-02-22T09:35:49.817Z,10.74
2023-02-22T09:38:24.646Z,10.98
2023-02-22T09:41:20.328Z,10.76
2023-02-22T09:44:12.241Z,10.90
2023-02-22T09:46:48.378Z,10.55
2023-02-22T09:49:16.068Z,10.47
2023-02-22T09:51:52.617Z,10.87
2023-02-22T09:54:52.758Z,10.64
2023-02-22T09:57:36.964Z,11.25
2023-02-22T10:00:19.000Z,11.47
2023-02-22T10:03:21.488Z,11.10
2023-02-22T10:06:04.653Z,11.00
2023-02-22T10:08:34.534Z,10.16
2023-02-22T10:11:58.331Z,11.01
2023-02-22T10:15:27.450Z,10.76
2023-02-22T10:18:54.994Z,10.99
2023-02-22T10:22:05.038Z,11.28
2023-02-22T10:24:57.932Z,11.11
2023-02-22T10:27:41.309Z,11.42
2023-02-22T10:30:43.843Z,11.29
2023-02-22T10:33:21.439Z,11.96
2023-02-22T10:35:51.459Z,11.96
2023-02-22T10:38:29.615Z,11.56
2023-02-22T10:41:09.945Z,11.28
2023-02-22T10:43:41.512Z,12.05
2023-02-22T10:46:19.006Z,12.08
2023-02-22T10:48:56.719Z,11.90
2023-02-22T10:51:24.726Z,12.47
2023-02-22T10:54:14.458Z,11.81
2023-02-22T10:56:52.512Z,11.97
2023-02-22T10:59:39.236Z,10.97
2023-02-22T11:02:20.147Z,11.24
2023-02-22T11:04:57.223Z,11.46
2023-02-22T11:07:33.215Z,11.27
2023-02-22T11:10:09.277Z,11.29
2023-02-22T11:12:42.294Z,11.63
2023-02-22T11:15:29.839Z,11.77
2023-02-22T11:18:01.267Z,11.65
2023-02-22T11:20:40.188Z,12.61
2023-02-22T11:23:08.300Z,12.22
2023-02-22T11:25:42.670Z,12.19
2023-02-22T11:28:32.735Z,12.14
2023-02-22T11:31:17.567Z,12.10
2023-02-22T11:36:51.144Z,11.76
2023-02-22T11:39:34.535Z,12.27
2023-02-22T11:42:27.254Z,13.27
2023-02-22T11:45:24.729Z,12.96
2023-02-22T11:48:01.253Z,12.39
2023-02-22T11:50:36.724Z,12.26
2023-02-22T11:53:56.195Z,12.39
2023-02-22T11:56:41.851Z,12.98
2023-02-22T12:00:24.140Z,12.68
2023-02-22T12:07:34.774Z,13.08
2023-02-22T12:10:48.434Z,12.55
2023-02-22T12:14:21.053Z,12.47
2023-02-22T12:17:34.924Z,13.11
2023-02-22T12:20:47.896Z,12.22
2023-02-22T12:24:01.613Z,12.13
2023-02-22T12:26:41.507Z,12.80
2023-02-22T12:29:39.215Z,12.08
2023-02-22T12:32:47.484Z,12.38
2023-02-22T12:35:50.218Z,12.84
2023-02-22T12:38:44.239Z,13.26
2023-02-22T12:41:45.305Z,12.26
2023-02-22T12:44:30.395Z,12.11
2023-02-22T12:47:01.374Z,12.64
2023-02-22T12:49:49.585Z,12.88
2023-02-22T12:52:33.969Z,12.71
2023-02-22T12:55:13.964Z,13.00
2023-02-22T12:58:39.791Z,12.87
2023-02-22T13:01:19.912Z,12.77
2023-02-22T13:03:49.310Z,12.74
2023-02-22T13:07:04.452Z,12.54
2023-02-22T13:10:03.962Z,12.13
2023-02-22T13:13:15.118Z,12.39
2023-02-22T13:15:58.029Z,11.76
2023-02-22T13:18:31.428Z,12.61
2023-02-22T13:21:29.758Z,11.98
2023-02-22T13:24:21.355Z,12.43
2023-02-22T13:27:14.873Z,12.57
2023-02-22T13:29:52.054Z,12.72
2023-02-22T13:33:15.021Z,13.13
2023-02-22T13:36:19.353Z,12.96
2023-02-22T13:39:19.480Z,12.41
2023-02-22T13:42:25.276Z,12.63
2023-02-22T13:45:37.221Z,12.16
2023-02-22T13:48:51.146Z,12.50
2023-02-22T13:52:12.236Z,12.35
2023-02-22T13:54:54.720Z,12.54
2023-02-22T13:57:58.706Z,12.07
2023-02-22T14:00:52.123Z,12.92
2023-02-22T14:03:24.137Z,12.59
2023-02-22T14:05:57.145Z,12.51
2023-02-22T14:08:25.450Z,13.38
2023-02-22T14:10:58.052Z,12.48
2023-02-22T14:14:00.865Z,12.71
2023-02-22T14:16:31.663Z,12.61
2023-02-22T14:19:13.727Z,12.35
2023-02-22T14:22:06.799Z,12.97
2023-02-22T14:24:48.033Z,13.11
2023-02-22T14:27:20.136Z,12.81
2023-02-22T14:30:00.585Z,12.23
2023-02-22T14:32:36.348Z,12.67
2023-02-22T14:35:26.535Z,12.75
2023-02-22T14:38:00.894Z,12.15
2023-02-22T14:40:34.510Z,12.63
2023-02-22T14:43:06.229Z,12.49
2023-02-22T14:45:43.468Z,12.14
2023-02-22T14:48:39.726Z,11.90
2023-02-22T14:51:38.607Z,11.99
2023-02-22T14:54:47.108Z,12.17
2023-02-22T14:57:56.796Z,11.58
2023-02-22T15:00:49.880Z,11.93
2023-02-22T15:03:37.410Z,11.40
2023-02-22T15:06:21.982Z,12.09
2023-02-22T15:09:25.722Z,11.79
2023-02-22T15:12:04.023Z,12.08
2023-02-22T15:14:39.013Z,12.22
2023-02-22T15:17:24.688Z,11.67
2023-02-22T15:19:53.336Z,11.99
2023-02-22T15:22:31.584Z,11.80
2023-02-22T15:25:05.338Z,11.46
2023-02-22T15:27:39.897Z,11.45
2023-02-22T15:30:26.864Z,11.37
2023-02-22T15:33:04.172Z,11.02
2023-02-22T15:35:33.685Z,11.24
2023-02-22T15:38:16.035Z,11.25
2023-02-22T15:40:56.266Z,11.14
2023-02-22T15:44:28.013Z,11.23
2023-02-22T15:46:57.013Z,11.22
2023-02-22T15:49:25.955Z,11.19
2023-02-22T15:52:24.394Z,11.22
2023-02-22T15:54:53.451Z,11.23
2023-02-22T15:57:25.474Z,11.10
2023-02-22T15:59:58.992Z,11.00
2023-02-22T16:02:33.918Z,11.29
2023-02-22T16:05:18.424Z,10.97
2023-02-22T16:07:50.896Z,10.76
2023-02-22T16:10:34.986Z,10.83
2023-02-22T16:13:32.048Z,10.63
2023-02-22T16:16:04.940Z,10.69
2023-02-22T16:18:41.458Z,10.45
2023-02-22T16:21:17.545Z,10.80
2023-02-22T16:23:55.979Z,10.84
2023-02-22T16:26:34.895Z,10.87
2023-02-22T16:29:08.968Z,10.62
2023-02-22T16:31:40.286Z,10.32
2023-02-22T16:34:09.052Z,10.55
2023-02-22T16:36:52.196Z,10.76
2023-02-22T16:39:32.577Z,10.61
2023-02-22T16:42:05.386Z,10.34
2023-02-22T16:44:34.616Z,10.16
2023-02-22T16:47:02.734Z,10.20
2023-02-22T16:49:30.676Z,10.47
2023-02-22T16:52:02.537Z,10.84
2023-02-22T16:54:45.135Z,10.24
2023-02-22T16:57:24.149Z,10.45
2023-02-22T16:59:52.881Z,9.79
2023-02-22T17:02:21.792Z,10.43
2023-02-22T17:04:49.792Z,10.41
2023-02-22T17:07:31.437Z,10.13
2023-02-22T17:09:59.696Z,10.32
2023-02-22T17:12:29.813Z,9.83
2023-02-22T17:14:57.816Z,10.31
2023-02-22T17:17:26.417Z,9.97
2023-02-22T17:19:54.984Z,9.98
2023-02-22T17:22:23.508Z,10.16
2023-02-22T17:24:51.396Z,10.37
2023-02-22T17:27:19.446Z,10.26
2023-02-22T17:29:48.423Z,9.60
2023-02-22T17:32:16.466Z,9.88
2023-02-22T17:34:44.316Z,10.06
2023-02-22T17:37:12.286Z,9.65
2023-02-22T17:39:40.402Z,9.40
2023-02-22T17:42:08.320Z,9.39
2023-02-22T17:44:36.538Z,9.29
2023-02-22T17:47:04.459Z,8.91
2023-02-22T17:49:32.333Z,8.82
2023-02-22T17:52:02.670Z,8.81
2023-02-22T17:54:30.555Z,8.93
2023-02-22T17:56:58.390Z,8.67
2023-02-22T17:59:27.273Z,8.59
2023-02-22T18:01:56.710Z,8.73
2023-02-22T18:04:24.600Z,8.42
2023-02-22T18:06:52.618Z,8.50
2023-02-22T18:09:20.545Z,8.39
2023-02-22T18:11:48.461Z,8.21
2023-02-22T18:14:16.349Z,8.05
2023-02-22T18:16:46.720Z,8.13
2023-02-22T18:19:20.431Z,8.15
2023-02-22T18:21:49.916Z,8.36
2023-02-22T18:24:18.433Z,8.29
2023-02-22T18:26:46.307Z,7.93
2023-02-22T18:29:14.168Z,7.68
2023-02-22T18:31:45.197Z,7.70
2023-02-22T18:34:13.141Z,7.60
2023-02-22T18:36:41.038Z,7.55
2023-02-22T18:39:11.695Z,7.56
2023-02-22T18:41:39.930Z,7.49
2023-02-22T18:44:10.383Z,7.36
2023-02-22T18:46:38.359Z,7.38
2023-02-22T18:49:07.380Z,7.21
2023-02-22T18:51:35.728Z,7.12
2023-02-22T18:54:03.722Z,7.12
2023-02-22T18:56:31.805Z,7.14
2023-02-22T18:59:03.949Z,7.04
2023-02-22T19:01:38.507Z,7.03
2023-02-22T19:04:12.530Z,6.84
2023-02-22T19:06:42.965Z,6.76
2023-02-22T19:09:10.762Z,7.03
2023-02-22T19:11:44.539Z,6.70
2023-02-22T19:14:13.797Z,6.82
2023-02-22T19:16:44.808Z,6.75
2023-02-22T19:19:16.785Z,6.88
2023-02-22T19:21:44.590Z,7.11
2023-02-22T19:24:13.152Z,7.05
2023-02-22T19:26:50.163Z,6.98
2023-02-22T19:29:22.040Z,7.40
2023-02-22T19:31:51.922Z,7.33
2023-02-22T19:34:23.807Z,6.92
2023-02-22T19:36:51.770Z,6.58
2023-02-22T19:39:20.886Z,6.47
2023-02-22T19:41:48.833Z,6.97
2023-02-22T19:44:16.682Z,7.33
2023-02-22T19:46:46.201Z,7.43
2023-02-22T19:49:16.033Z,7.25
2023-02-22T19:51:44.146Z,7.02
2023-02-22T19:54:19.440Z,7.18
2023-02-22T19:56:50.978Z,6.75
2023-02-22T19:59:22.901Z,6.89
2023-02-22T20:01:55.037Z,7.13
2023-02-22T20:04:24.232Z,6.97
2023-02-22T20:06:55.187Z,7.09
2023-02-22T20:09:30.220Z,6.81
2023-02-22T20:11:58.151Z,7.21
2023-02-22T20:14:28.349Z,6.81
2023-02-22T20:16:58.479Z,6.89
2023-02-22T20:19:27.704Z,6.79
2023-02-22T20:21:56.576Z,7.14
2023-02-22T20:24:25.210Z,6.87
2023-02-22T20:26:55.780Z,6.87
2023-02-22T20:29:29.563Z,6.75
2023-02-22T20:32:02.958Z,6.87
2023-02-22T20:34:34.865Z,6.82
2023-02-22T20:37:04.795Z,6.69
2023-02-22T20:39:32.900Z,6.94
2023-02-22T20:42:00.841Z,7.06
2023-02-22T20:44:28.804Z,7.13
2023-02-22T20:46:56.747Z,6.95
2023-02-22T20:49:27.261Z,6.82
2023-02-22T20:51:55.110Z,6.89
2023-02-22T20:54:22.961Z,6.78
2023-02-22T20:56:52.905Z,6.57
2023-02-22T20:59:21.746Z,6.71
2023-02-22T21:01:50.252Z,6.55
2023-02-22T21:04:18.781Z,6.70
2023-02-22T21:06:46.625Z,6.74
2023-02-22T21:09:19.114Z,6.74
2023-02-22T21:11:47.689Z,6.83
2023-02-22T21:14:19.074Z,7.01
2023-02-22T21:16:50.977Z,6.96
2023-02-22T21:19:26.188Z,6.84
2023-02-22T21:21:57.928Z,6.81
2023-02-22T21:24:28.116Z,6.88
2023-02-22T21:26:58.822Z,6.85
2023-02-22T21:29:29.041Z,6.69
2023-02-22T21:31:57.202Z,6.81
2023-02-22T21:34:25.738Z,6.85
2023-02-22T21:36:54.063Z,6.60
2023-02-22T21:39:22.705Z,6.62
2023-02-22T21:41:52.123Z,6.60
2023-02-22T21:44:20.741Z,6.78
2023-02-22T21:46:49.895Z,7.02
2023-02-22T21:49:22.671Z,6.89
2023-02-22T21:51:52.435Z,6.97
2023-02-22T21:54:20.670Z,7.01
2023-02-22T21:56:48.883Z,6.58
2023-02-22T21:59:20.872Z,6.61
2023-02-22T22:01:55.835Z,6.90
2023-02-22T22:04:29.011Z,6.92
2023-02-22T22:07:00.080Z,6.76
2023-02-22T22:09:32.641Z,6.67
2023-02-22T22:12:05.133Z,6.46
2023-02-22T22:14:35.657Z,6.70
2023-02-22T22:17:07.004Z,6.47
2023-02-22T22:19:41.596Z,6.55
2023-02-22T22:22:10.775Z,6.31
2023-02-22T22:24:41.637Z,6.36
2023-02-22T22:27:12.736Z,6.10
2023-02-22T22:29:40.698Z,6.44
2023-02-22T22:32:08.995Z,6.05
2023-02-22T22:34:37.804Z,6.11
2023-02-22T22:37:05.815Z,6.32
2023-02-22T22:39:33.735Z,6.44
2023-02-22T22:42:01.875Z,6.28
2023-02-22T22:44:32.517Z,6.69
2023-02-22T22:47:00.996Z,6.14
2023-02-22T22:49:31.185Z,6.42
2023-02-22T22:51:59.321Z,5.95
2023-02-22T22:54:27.238Z,6.35
2023-02-22T22:56:55.078Z,6.27
2023-02-22T22:59:22.941Z,6.38
2023-02-22T23:01:52.172Z,6.29
2023-02-22T23:04:21.399Z,6.14
2023-02-22T23:06:52.872Z,6.56
2023-02-22T23:09:31.492Z,6.38
2023-02-22T23:12:09.791Z,6.51
2023-02-22T23:14:43.966Z,6.13
2023-02-22T23:17:16.189Z,6.17
2023-02-22T23:19:45.445Z,5.93
2023-02-22T23:22:14.158Z,5.91
2023-02-22T23:24:44.383Z,5.82
2023-02-22T23:27:12.619Z,5.80
2023-02-22T23:29:42.503Z,5.96
2023-02-22T23:32:10.881Z,6.03
2023-02-22T23:34:41.481Z,5.88
2023-02-22T23:37:10.332Z,5.86
2023-02-22T23:39:38.692Z,6.17
2023-02-22T23:42:09.097Z,5.79
2023-02-22T23:44:36.996Z,6.11
2023-02-22T23:47:04.900Z,5.64
2023-02-22T23:49:36.015Z,5.82
2023-02-22T23:52:06.356Z,5.62
2023-02-22T23:54:36.620Z,5.68
2023-02-22T23:57:06.358Z,5.59
2023-02-22T23:59:34.914Z,5.75
